Time;durP1;ratioP1;P1;durP2;ratioP2;P2;SDS_P1;SDS_P2;PMS_P1;PMS_P2;Temp;Humidity;BMP_temperature;BMP_pressure;BME280_temperature;BME280_humidity;BME280_pressure;Samples;Min_cycle;Max_cycle;Signal;HPM_P1;HPM_P2
2023/03/16 02:05:08;;;;;;;0.00;0.00;;;1.80;99.90;;;;;;6254881;22;20023;-90
2023/03/16 02:07:39;;;;;;;0.10;0.10;;;1.70;99.90;;;;;;6257151;22;20066;-91
2023/03/16 02:10:06;;;;;;;0.10;0.10;;;1.50;99.90;;;;;;6270105;22;20000;-91
2023/03/16 02:12:32;;;;;;;0.10;0.10;;;;;;;;;;6273013;22;20015;-91
2023/03/16 02:14:58;;;;;;;0.03;0.03;;;;;;;;;;6304990;22;20328;-94
2023/03/16 05:57:46;;;;;;;0.10;0.10;;;;;;;;;;6246814;22;20023;-90
2023/03/16 06:00:14;;;;;;;0.00;0.00;;;2.50;99.90;;;;;;6272110;22;20091;-90
2023/03/16 06:02:46;;;;;;;0.05;0.05;;;2.50;99.90;;;;;;6273394;22;20015;-90
2023/03/16 06:05:12;;;;;;;0.10;0.10;;;;;;;;;;6273265;22;20460;-91
2023/03/16 06:07:38;;;;;;;0.10;0.10;;;;;;;;;;6273333;22;20008;-90
2023/03/16 06:10:05;;;;;;;0.10;0.10;;;2.50;99.90;;;;;;6275489;22;20010;-90
2023/03/16 06:12:31;;;;;;;0.05;0.05;;;;;;;;;;6308811;22;20431;-91
2023/03/16 06:14:57;;;;;;;0.00;0.00;;;;;;;;;;6306020;22;20009;-91
2023/03/16 06:17:23;;;;;;;0.10;0.10;;;;;;;;;;6309670;22;20003;-93
2023/03/16 06:19:49;;;;;;;0.10;0.10;;;;;;;;;;6307796;22;20461;-90
2023/03/16 06:22:15;;;;;;;0.10;0.10;;;;;;;;;;6307868;22;20003;-90
2023/03/16 06:24:41;;;;;;;0.10;0.10;;;;;;;;;;6307954;22;20002;-90
2023/03/16 06:27:07;;;;;;;0.00;0.00;;;;;;;;;;6307009;22;20322;-91
2023/03/16 06:29:32;;;;;;;0.00;0.00;;;;;;;;;;6308160;22;20082;-91
2023/03/16 06:31:58;;;;;;;0.10;0.10;;;;;;;;;;6305913;22;20009;-91
2023/03/16 06:34:24;;;;;;;0.10;0.10;;;;;;;;;;6307655;22;19998;-91
2023/03/16 06:36:50;;;;;;;0.10;0.10;;;3.50;99.90;;;;;;6308151;22;20003;-91
2023/03/16 06:39:16;;;;;;;0.08;0.08;;;;;;;;;;6308582;22;19999;-90
2023/03/16 06:41:42;;;;;;;0.10;0.10;;;;;;;;;;6308925;22;20402;-90
2023/03/16 06:44:09;;;;;;;0.10;0.10;;;3.70;99.90;;;;;;6308341;22;20077;-91
2023/03/16 06:46:35;;;;;;;0.10;0.10;;;;;;;;;;6307748;22;20007;-91
2023/03/16 06:49:01;;;;;;;0.10;0.10;;;;;;;;;;6308109;22;20431;-91
2023/03/16 06:51:27;;;;;;;0.10;0.10;;;;;;;;;;6308101;22;20003;-90
2023/03/16 06:53:53;;;;;;;0.10;0.10;;;;;;;;;;6308348;22;20419;-91
2023/03/16 06:56:19;;;;;;;0.00;0.00;;;;;;;;;;6309696;22;20003;-90
2023/03/16 06:58:44;;;;;;;0.10;0.10;;;3.90;99.90;;;;;;6303683;22;20007;-91
2023/03/16 07:01:11;;;;;;;0.10;0.10;;;;;;;;;;6303132;22;20321;-91
2023/03/16 07:03:37;;;;;;;0.00;0.00;;;;;;;;;;6304842;22;20003;-91
2023/03/16 07:06:03;;;;;;;0.10;0.10;;;;;;;;;;6303302;22;20017;-91
2023/03/16 07:08:29;;;;;;;0.10;0.10;;;;;;;;;;6305817;22;20042;-91
2023/03/16 07:10:54;;;;;;;0.10;0.10;;;;;;;;;;6310200;22;20003;-91
2023/03/16 07:13:20;;;;;;;0.03;0.03;;;4.30;99.90;;;;;;6305776;22;20081;-91
2023/03/16 07:15:46;;;;;;;0.10;0.10;;;;;;;;;;6306971;22;20003;-92
2023/03/16 07:18:12;;;;;;;0.10;0.10;;;;;;;;;;6305689;22;19999;-91
2023/03/16 07:20:38;;;;;;;0.00;0.00;;;;;;;;;;6305492;22;19995;-91
2023/03/16 07:23:04;;;;;;;0.10;0.10;;;;;;;;;;6306533;22;20619;-90
2023/03/16 07:25:30;;;;;;;0.10;0.10;;;;;;;;;;6306521;22;20093;-91
2023/03/16 07:27:56;;;;;;;0.10;0.10;;;4.60;99.90;;;;;;6305963;22;20007;-90
2023/03/16 07:30:24;;;;;;;0.10;0.10;;;;;;;;;;6305570;22;20293;-91
2023/03/16 07:32:49;;;;;;;0.00;0.00;;;4.90;99.90;;;;;;6306756;22;20014;-90
2023/03/16 07:35:16;;;;;;;0.00;0.00;;;;;;;;;;6304895;22;20003;-91
2023/03/16 07:37:41;;;;;;;0.10;0.10;;;5.00;99.90;;;;;;6302735;22;20003;-91
2023/03/16 07:40:08;;;;;;;0.00;0.00;;;5.00;99.90;;;;;;6304986;22;20103;-92
2023/03/16 07:42:34;;;;;;;0.10;0.10;;;;;;;;;;6306459;22;20086;-91
2023/03/16 07:45:00;;;;;;;0.10;0.10;;;5.20;99.90;;;;;;6306604;22;20436;-91
2023/03/16 07:47:27;;;;;;;0.10;0.10;;;;;;;;;;6305406;22;20011;-92
2023/03/16 07:49:53;;;;;;;0.10;0.10;;;;;;;;;;6305245;22;20008;-90
2023/03/16 07:52:19;;;;;;;0.10;0.10;;;;;;;;;;6304484;22;20007;-91
2023/03/16 07:54:44;;;;;;;0.10;0.10;;;5.40;99.90;;;;;;6305218;22;20006;-91
2023/03/16 07:57:10;;;;;;;0.00;0.00;;;5.40;99.90;;;;;;6305922;22;19999;-92
2023/03/16 07:59:37;;;;;;;0.10;0.10;;;;;;;;;;6305932;22;19999;-92
2023/03/16 08:02:03;;;;;;;0.10;0.10;;;;;;;;;;6308558;22;20432;-91
2023/03/16 08:04:30;;;;;;;0.10;0.10;;;;;;;;;;6306074;22;20003;-91
2023/03/16 08:06:59;;;;;;;0.10;0.10;;;;;;;;;;6303895;22;20019;-91
2023/03/16 08:09:25;;;;;;;0.05;0.05;;;;;;;;;;6305220;22;20019;-92
2023/03/16 08:11:51;;;;;;;0.00;0.00;;;;;;;;;;6305058;22;20008;-92
2023/03/16 08:14:16;;;;;;;0.10;0.10;;;6.10;98.20;;;;;;6306267;22;20010;-90
2023/03/16 08:16:42;;;;;;;0.10;0.10;;;;;;;;;;6305654;22;19999;-90
2023/03/16 08:19:08;;;;;;;0.10;0.10;;;6.30;98.50;;;;;;6307313;22;20003;-91
2023/03/16 08:21:35;;;;;;;0.10;0.10;;;;;;;;;;6305688;22;20440;-91
2023/03/16 08:24:00;;;;;;;0.10;0.10;;;6.40;97.10;;;;;;6306392;22;19999;-91
2023/03/16 08:26:26;;;;;;;0.10;0.10;;;6.40;96.80;;;;;;6306463;22;20061;-91
2023/03/16 08:28:52;;;;;;;0.10;0.10;;;;;;;;;;6306521;22;19995;-91
2023/03/16 08:31:19;;;;;;;0.10;0.10;;;6.60;96.70;;;;;;6300939;22;20317;-92
2023/03/16 08:33:46;;;;;;;0.10;0.10;;;6.70;96.50;;;;;;6304646;22;20411;-91
2023/03/16 08:36:14;;;;;;;0.10;0.10;;;6.70;96.50;;;;;;6304893;22;19995;-90
2023/03/16 08:38:40;;;;;;;0.10;0.10;;;6.20;96.60;;;;;;6305426;22;20003;-89
2023/03/16 08:41:06;;;;;;;0.10;0.10;;;;;;;;;;6303491;22;20068;-91
2023/03/16 08:43:32;;;;;;;0.20;0.20;;;;;;;;;;6299961;22;20046;-90
2023/03/16 08:45:58;;;;;;;0.10;0.10;;;;;;;;;;6304322;22;20042;-90
2023/03/16 08:48:25;;;;;;;0.10;0.10;;;6.70;96.10;;;;;;6302024;22;20344;-90
2023/03/16 08:50:52;;;;;;;0.10;0.10;;;;;;;;;;6302579;22;20003;-93
2023/03/16 08:53:20;;;;;;;0.10;0.10;;;;;;;;;;6300434;22;20014;-91
2023/03/16 08:55:46;;;;;;;0.10;0.10;;;;;;;;;;6302459;22;20010;-93
2023/03/16 08:58:12;;;;;;;0.10;0.10;;;6.90;95.00;;;;;;6302780;22;20050;-91
2023/03/16 09:00:38;;;;;;;0.10;0.10;;;;;;;;;;6301921;22;20368;-91
2023/03/16 09:03:05;;;;;;;0.10;0.10;;;;;;;;;;6300487;22;20061;-91
2023/03/16 09:05:31;;;;;;;0.10;0.10;;;7.10;94.50;;;;;;6301616;22;20011;-90
2023/03/16 09:07:57;;;;;;;0.10;0.10;;;;;;;;;;6301493;22;20011;-91
2023/03/16 09:10:24;;;;;;;0.10;0.10;;;;;;;;;;6301914;22;20014;-92
2023/03/16 09:12:51;;;;;;;0.10;0.10;;;;;;;;;;6300805;22;20006;-91
2023/03/16 09:15:18;;;;;;;0.10;0.10;;;7.40;96.10;;;;;;6303322;22;20057;-91
2023/03/16 09:17:44;;;;;;;0.10;0.10;;;;;;;;;;6303471;22;20386;-93
2023/03/16 09:20:12;;;;;;;0.10;0.10;;;7.50;94.50;;;;;;6301495;22;20321;-92
2023/03/16 09:22:38;;;;;;;0.10;0.10;;;;;;;;;;6302491;22;20479;-92
2023/03/16 09:25:09;;;;;;;0.10;0.10;;;7.30;94.20;;;;;;6301555;22;20010;-92
2023/03/16 09:27:38;;;;;;;0.10;0.10;;;7.30;94.60;;;;;;6302262;22;20129;-91
2023/03/16 09:30:06;;;;;;;0.10;0.10;;;7.10;95.00;;;;;;6302689;22;20003;-91
2023/03/16 09:32:32;;;;;;;0.10;0.10;;;7.10;95.10;;;;;;6301708;22;20006;-92
2023/03/16 09:34:58;;;;;;;0.10;0.10;;;;;;;;;;6302489;22;20010;-90
2023/03/16 09:37:25;;;;;;;0.10;0.10;;;;;;;;;;6301276;22;20027;-91
2023/03/16 09:39:51;;;;;;;0.10;0.10;;;7.20;95.70;;;;;;6302447;22;20340;-91
2023/03/16 09:42:26;;;;;;;0.10;0.10;;;7.00;95.90;;;;;;6300562;22;20305;-92
2023/03/16 09:45:21;;;;;;;0.10;0.10;;;6.70;96.20;;;;;;6301586;22;20004;-90
2023/03/16 09:47:49;;;;;;;0.10;0.10;;;7.00;96.20;;;;;;6301085;22;20060;-91
2023/03/16 09:50:22;;;;;;;0.10;0.10;;;6.90;95.70;;;;;;6301218;22;20075;-91
2023/03/16 09:52:54;;;;;;;0.10;0.10;;;6.90;96.30;;;;;;6301885;22;20003;-91
2023/03/16 09:55:33;;;;;;;0.10;0.10;;;6.90;96.50;;;;;;6300477;22;20007;-90
2023/03/16 09:58:00;;;;;;;0.10;0.10;;;6.90;96.20;;;;;;6302530;22;20011;-91
2023/03/16 10:00:32;;;;;;;0.10;0.10;;;6.90;96.40;;;;;;6301531;22;20003;-92
2023/03/16 10:02:58;;;;;;;0.10;0.10;;;;;;;;;;6298686;22;20007;-92
2023/03/16 10:05:24;;;;;;;0.08;0.08;;;;;;;;;;6301500;22;20497;-91
2023/03/16 10:08:02;;;;;;;0.10;0.10;;;7.30;96.20;;;;;;6300896;22;20430;-90
2023/03/16 10:10:52;;;;;;;0.10;0.10;;;7.40;95.20;;;;;;6302172;22;20011;-92
2023/03/16 10:13:35;;;;;;;0.10;0.10;;;7.50;95.20;;;;;;6305239;22;20003;-91
2023/03/16 10:16:06;;;;;;;0.10;0.10;;;7.70;94.60;;;;;;6302749;22;19999;-90
2023/03/16 10:18:40;;;;;;;0.10;0.10;;;7.70;94.00;;;;;;6302600;22;20401;-90
2023/03/16 10:21:15;;;;;;;0.10;0.10;;;7.80;93.40;;;;;;6300804;22;20007;-91
2023/03/16 10:23:41;;;;;;;0.10;0.10;;;;;;;;;;6301121;22;20068;-91
2023/03/16 10:26:34;;;;;;;0.10;0.10;;;8.00;94.50;;;;;;6302614;22;20010;-91
2023/03/16 10:29:00;;;;;;;0.10;0.10;;;;;;;;;;6302930;22;20013;-90
2023/03/16 10:31:26;;;;;;;0.10;0.10;;;8.50;93.40;;;;;;6302441;22;20030;-91
2023/03/16 10:34:01;;;;;;;0.10;0.10;;;8.70;92.10;;;;;;6302308;22;20027;-91
2023/03/16 10:36:33;;;;;;;0.10;0.10;;;8.60;92.00;;;;;;6301887;22;20003;-91
2023/03/16 10:39:03;;;;;;;0.10;0.10;;;8.60;92.60;;;;;;6302008;22;20000;-90
2023/03/16 10:41:32;;;;;;;0.10;0.10;;;8.60;92.40;;;;;;6303457;22;20007;-92
2023/03/16 10:44:10;;;;;;;0.10;0.10;;;8.50;92.50;;;;;;6305258;22;20003;-91
2023/03/16 10:46:48;;;;;;;0.10;0.10;;;8.70;92.40;;;;;;6305464;22;20410;-92
2023/03/16 10:49:21;;;;;;;0.10;0.10;;;8.70;92.60;;;;;;6298292;22;20003;-93
2023/03/16 10:51:47;;;;;;;0.10;0.10;;;8.50;92.50;;;;;;6302783;22;20006;-91
2023/03/16 10:54:36;;;;;;;0.10;0.10;;;9.00;91.80;;;;;;6301498;22;20004;-91
2023/03/16 10:57:32;;;;;;;0.10;0.10;;;9.00;91.00;;;;;;6304241;22;20003;-91
2023/03/16 11:00:14;;;;;;;0.10;0.10;;;10.80;91.80;;;;;;6329581;22;20003;-91
2023/03/16 11:02:39;;;;;;;0.10;0.10;;;9.00;91.80;;;;;;6303355;22;20078;-91
2023/03/16 11:05:26;;;;;;;0.10;0.10;;;8.80;91.80;;;;;;6303844;22;20039;-92
2023/03/16 11:08:11;;;;;;;0.10;0.10;;;9.30;91.80;;;;;;6304247;22;20360;-91
2023/03/16 11:10:41;;;;;;;0.10;0.10;;;9.20;91.10;;;;;;6304753;22;20039;-91
2023/03/16 11:13:16;;;;;;;0.05;0.05;;;9.20;91.20;;;;;;6303990;22;20007;-91
2023/03/16 11:15:51;;;;;;;0.00;0.00;;;9.10;91.10;;;;;;6303431;22;20000;-91
2023/03/16 11:18:42;;;;;;;0.10;0.10;;;9.60;91.60;;;;;;6304446;22;20442;-91
2023/03/16 11:21:24;;;;;;;0.10;0.10;;;9.80;91.00;;;;;;6304224;22;20004;-92
2023/03/16 11:23:53;;;;;;;0.10;0.10;;;10.00;90.00;;;;;;6306096;22;19999;-90
2023/03/16 11:26:31;;;;;;;0.10;0.10;;;10.00;89.20;;;;;;6301060;22;20035;-93
2023/03/16 11:29:08;;;;;;;0.00;0.00;;;10.10;88.10;;;;;;6303040;22;20082;-90
2023/03/16 11:31:54;;;;;;;0.10;0.10;;;10.10;88.40;;;;;;6304661;22;20000;-90
2023/03/16 11:34:28;;;;;;;0.10;0.10;;;10.20;88.80;;;;;;6305289;22;20000;-91
2023/03/16 11:36:58;;;;;;;0.00;0.00;;;10.30;89.10;;;;;;6304855;22;20340;-91
2023/03/16 11:39:59;;;;;;;0.10;0.10;;;10.20;89.40;;;;;;6304934;22;20499;-91
2023/03/16 11:42:38;;;;;;;0.00;0.00;;;10.40;88.70;;;;;;6300182;22;20004;-91
2023/03/16 11:45:27;;;;;;;0.05;0.05;;;10.40;89.80;;;;;;6304703;22;20090;-92
2023/03/16 11:48:19;;;;;;;0.10;0.10;;;10.50;90.10;;;;;;6303173;22;20056;-92
2023/03/16 11:51:03;;;;;;;0.00;0.00;;;10.30;88.90;;;;;;6302166;22;20007;-92
2023/03/16 11:53:43;;;;;;;0.03;0.03;;;10.50;89.70;;;;;;6303747;22;20007;-92
2023/03/16 11:56:28;;;;;;;0.00;0.00;;;10.80;87.40;;;;;;6305680;22;20010;-92
2023/03/16 11:59:27;;;;;;;0.00;0.00;;;10.80;87.70;;;;;;6306571;22;20476;-91
2023/03/16 12:02:08;;;;;;;0.00;0.00;;;10.90;87.60;;;;;;6307256;22;20003;-91
2023/03/16 12:05:10;;;;;;;0.00;0.00;;;10.90;87.90;;;;;;6305868;22;20007;-91
2023/03/16 12:08:06;;;;;;;0.00;0.00;;;11.00;83.10;;;;;;6305850;22;20004;-91
2023/03/16 12:11:01;;;;;;;0.00;0.00;;;10.90;83.60;;;;;;6306375;22;20011;-92
2023/03/16 12:13:59;;;;;;;0.00;0.00;;;11.00;86.90;;;;;;6304201;22;20436;-91
2023/03/16 12:16:49;;;;;;;0.00;0.00;;;10.90;83.80;;;;;;6305345;22;20010;-93
2023/03/16 12:19:40;;;;;;;0.00;0.00;;;10.90;84.60;;;;;;6302631;22;20006;-90
2023/03/16 12:22:28;;;;;;;0.00;0.00;;;10.90;82.70;;;;;;6311900;22;20222;-91
2023/03/16 12:24:54;;;;;;;0.10;0.10;;;;;;;;;;6312888;22;20074;-90
2023/03/16 12:27:25;;;;;;;0.00;0.00;;;10.80;85.60;;;;;;6311604;22;20023;-91
2023/03/16 12:30:24;;;;;;;0.10;0.10;;;11.00;86.50;;;;;;6310785;22;20007;-91
2023/03/16 12:33:08;;;;;;;0.10;0.10;;;10.90;86.20;;;;;;6282212;22;20003;-91
2023/03/16 12:35:58;;;;;;;0.10;0.10;;;11.00;86.00;;;;;;6307515;22;20003;-92
2023/03/16 12:38:43;;;;;;;0.00;0.00;;;11.10;87.10;;;;;;6306344;22;20435;-91
2023/03/16 12:41:27;;;;;;;0.00;0.00;;;11.10;86.30;;;;;;6304414;22;20007;-90
2023/03/16 12:44:42;;;;;;;0.00;0.00;;;11.10;85.60;;;;;;6304398;22;20015;-90
2023/03/16 12:47:08;;;;;;;0.00;0.00;;;;;;;;;;6157815;23;20057;-91
2023/03/16 12:49:40;;;;;;;0.00;0.00;;;11.20;82.60;;;;;;6154891;23;20394;-91
2023/03/16 12:52:14;;;;;;;0.00;0.00;;;11.20;80.20;;;;;;6242058;22;20086;-91
2023/03/16 12:55:04;;;;;;;0.00;0.00;;;11.20;79.50;;;;;;6306749;22;20331;-91
2023/03/16 12:57:33;;;;;;;0.00;0.00;;;11.10;78.70;;;;;;6305630;22;20015;-91
2023/03/16 12:59:59;;;;;;;0.00;0.00;;;;;;;;;;6306299;22;20074;-90
2023/03/16 13:02:30;;;;;;;0.10;0.10;;;11.30;80.60;;;;;;6305244;22;20018;-91
2023/03/16 13:04:59;;;;;;;0.00;0.00;;;11.50;77.60;;;;;;6306887;22;20019;-90
2023/03/16 13:07:27;;;;;;;0.00;0.00;;;10.60;77.60;;;;;;6306835;22;20007;-92
2023/03/16 13:10:03;;;;;;;0.00;0.00;;;11.50;77.70;;;;;;6308305;22;20003;-91
2023/03/16 13:12:37;;;;;;;0.00;0.00;;;12.50;79.20;;;;;;6307997;22;20081;-92
2023/03/16 13:15:18;;;;;;;0.00;0.00;;;11.60;78.30;;;;;;6306673;22;20444;-92
2023/03/16 13:17:46;;;;;;;0.00;0.00;;;11.50;78.80;;;;;;6305092;22;20030;-91
2023/03/16 13:20:12;;;;;;;0.00;0.00;;;;;;;;;;6306334;22;19999;-90
2023/03/16 13:22:42;;;;;;;0.00;0.00;;;11.70;78.00;;;;;;6306750;22;20022;-92
2023/03/16 13:25:14;;;;;;;0.00;0.00;;;11.70;76.90;;;;;;6306086;22;20386;-91
2023/03/16 13:27:40;;;;;;;0.00;0.00;;;;;;;;;;6306093;22;20003;-92
2023/03/16 13:30:20;;;;;;;0.00;0.00;;;11.50;79.80;;;;;;6307385;22;20013;-91
2023/03/16 13:32:46;;;;;;;0.00;0.00;;;;;;;;;;6306739;22;20007;-92
2023/03/16 13:35:17;;;;;;;0.00;0.00;;;11.70;80.20;;;;;;6305826;22;20343;-91
2023/03/16 13:37:44;;;;;;;0.00;0.00;;;11.80;79.20;;;;;;6307090;22;20000;-92
2023/03/16 13:40:22;;;;;;;0.00;0.00;;;11.80;81.10;;;;;;6307008;22;20113;-91
2023/03/16 13:42:51;;;;;;;0.00;0.00;;;11.90;80.70;;;;;;6306028;22;20007;-93
2023/03/16 13:45:22;;;;;;;0.00;0.00;;;12.00;83.70;;;;;;6304842;22;20347;-92
2023/03/16 13:47:49;;;;;;;0.00;0.00;;;11.80;81.60;;;;;;6304666;22;20007;-93
2023/03/16 13:50:16;;;;;;;0.00;0.00;;;11.80;82.40;;;;;;6306018;22;20576;-92
2023/03/16 13:53:35;;;;;;;0.00;0.00;;;11.80;82.20;;;;;;6309146;22;20011;-92
2023/03/16 13:56:03;;;;;;;0.00;0.00;;;;;;;;;;6326906;22;20009;-92
2023/03/16 13:58:38;;;;;;;0.00;0.00;;;11.90;80.80;;;;;;6303761;22;20007;-92
2023/03/16 14:01:36;;;;;;;0.00;0.00;;;12.00;80.20;;;;;;6304549;22;20440;-92
2023/03/16 14:07:59;;;;;;;0.00;0.00;;;12.30;80.40;;;;;;6309330;22;20481;-92
2023/03/16 14:11:02;;;;;;;0.00;0.00;;;12.40;82.30;;;;;;6183514;22;20476;-92
2023/03/16 14:17:16;;;;;;;0.00;0.00;;;12.20;81.60;;;;;;6276763;22;20043;-91
2023/03/16 14:19:46;;;;;;;0.00;0.00;;;12.20;80.70;;;;;;6303672;22;20022;-91
2023/03/16 14:22:22;;;;;;;;;;;14.80;82.50;;;;;;6303350;22;20090;-91
2023/03/16 14:24:58;;;;;;;0.00;0.00;;;12.20;81.90;;;;;;6303450;22;19906;-91
2023/03/16 14:27:38;;;;;;;0.00;0.00;;;11.70;79.90;;;;;;6304102;22;20007;-91
2023/03/16 14:30:24;;;;;;;0.00;0.00;;;11.90;81.70;;;;;;6300768;22;20447;-91
2023/03/16 14:33:01;;;;;;;0.00;0.00;;;11.90;82.50;;;;;;6306956;22;20082;-90
2023/03/16 14:35:31;;;;;;;0.00;0.00;;;11.90;81.90;;;;;;6308102;22;20697;-90
2023/03/16 14:38:31;;;;;;;0.00;0.00;;;11.90;80.40;;;;;;6303831;22;20023;-90
2023/03/16 14:41:17;;;;;;;0.00;0.00;;;11.80;79.80;;;;;;6306006;22;20007;-89
2023/03/16 14:43:53;;;;;;;0.00;0.00;;;11.60;81.00;;;;;;6303530;22;20025;-91
2023/03/16 14:47:04;;;;;;;0.00;0.00;;;11.60;81.50;;;;;;6305212;22;20009;-91
2023/03/16 14:52:42;;;;;;;0.00;0.00;;;11.50;81.20;;;;;;6307803;22;20014;-90
2023/03/16 14:55:16;;;;;;;0.00;0.00;;;11.50;80.80;;;;;;6308425;22;20003;-90
2023/03/16 14:57:44;;;;;;;0.00;0.00;;;11.40;79.70;;;;;;6303040;22;20018;-90
2023/03/16 15:00:12;;;;;;;0.00;0.00;;;11.20;80.10;;;;;;6305080;22;20375;-91
2023/03/16 15:03:06;;;;;;;0.00;0.00;;;11.30;80.90;;;;;;6304883;22;20503;-91
2023/03/16 15:05:59;;;;;;;0.00;0.00;;;11.30;79.80;;;;;;6305311;22;20027;-91
2023/03/16 15:08:53;;;;;;;0.00;0.00;;;11.30;79.50;;;;;;6305524;22;20015;-91
2023/03/16 15:11:23;;;;;;;0.08;0.08;;;11.20;81.00;;;;;;6305280;22;20007;-91
2023/03/16 15:16:15;;;;;;;0.00;0.00;;;;;;;;;;6307228;22;20030;-90
2023/03/16 15:18:41;;;;;;;0.00;0.00;;;11.30;80.20;;;;;;6305604;22;19996;-92
2023/03/16 15:21:33;;;;;;;0.00;0.00;;;11.20;81.30;;;;;;6306202;22;20003;-91
2023/03/16 15:23:59;;;;;;;0.00;0.00;;;12.00;80.10;;;;;;6292593;22;20011;-93
2023/03/16 15:26:27;;;;;;;0.00;0.00;;;11.00;79.10;;;;;;6303449;22;20387;-91
2023/03/16 15:28:54;;;;;;;0.00;0.00;;;11.10;82.00;;;;;;6306089;22;20060;-90
2023/03/16 15:31:20;;;;;;;0.00;0.00;;;;;;;;;;6304726;22;20531;-90
2023/03/16 15:33:46;;;;;;;0.00;0.00;;;;;;;;;;6309817;22;20018;-90
2023/03/16 15:36:19;;;;;;;0.00;0.00;;;11.20;79.00;;;;;;6309530;22;20007;-91
2023/03/16 15:38:47;;;;;;;0.00;0.00;;;10.90;79.10;;;;;;6308371;22;20335;-92
2023/03/16 15:41:13;;;;;;;0.00;0.00;;;11.10;78.00;;;;;;6308032;22;20003;-90
2023/03/16 15:43:39;;;;;;;0.00;0.00;;;11.00;78.10;;;;;;6305039;22;20008;-90
2023/03/16 15:46:05;;;;;;;0.00;0.00;;;10.70;77.50;;;;;;6306276;22;20007;-90
2023/03/16 15:48:31;;;;;;;0.00;0.00;;;;;;;;;;6306103;22;20247;-90
2023/03/16 15:50:57;;;;;;;0.00;0.00;;;;;;;;;;6306358;22;20058;-91
2023/03/16 15:53:46;;;;;;;0.00;0.00;;;10.50;77.90;;;;;;6307510;22;20003;-88
2023/03/16 15:56:19;;;;;;;0.00;0.00;;;10.50;79.60;;;;;;6302274;22;20101;-90
2023/03/16 15:58:45;;;;;;;0.00;0.00;;;10.70;77.40;;;;;;6306446;22;20018;-90
2023/03/16 16:01:20;;;;;;;0.00;0.00;;;10.30;77.90;;;;;;6304649;22;20051;-91
2023/03/16 16:03:47;;;;;;;0.00;0.00;;;;;;;;;;6302534;22;20015;-90
2023/03/16 16:06:13;;;;;;;0.00;0.00;;;10.70;77.30;;;;;;6303301;22;19999;-92
2023/03/16 16:08:39;;;;;;;0.00;0.00;;;;;;;;;;6302984;22;20007;-91
2023/03/16 16:11:14;;;;;;;0.00;0.00;;;10.60;76.50;;;;;;6305034;22;20003;-91
2023/03/16 16:13:40;;;;;;;0.00;0.00;;;;;;;;;;6301159;22;20428;-90
2023/03/16 16:16:05;;;;;;;0.00;0.00;;;10.60;77.70;;;;;;6305287;22;20082;-90
2023/03/16 16:18:35;;;;;;;0.00;0.00;;;10.60;75.80;;;;;;6300271;22;20027;-91
2023/03/16 16:21:02;;;;;;;0.00;0.00;;;10.40;76.30;;;;;;6301131;22;20000;-91
2023/03/16 16:23:30;;;;;;;0.10;0.10;;;10.40;77.30;;;;;;6300531;22;20436;-90
2023/03/16 16:25:59;;;;;;;0.10;0.10;;;10.40;75.60;;;;;;6302569;22;20763;-91
2023/03/16 16:28:28;;;;;;;0.10;0.10;;;10.20;76.80;;;;;;6302671;22;20007;-92
2023/03/16 16:30:55;;;;;;;0.00;0.00;;;10.20;76.50;;;;;;6303724;22;20017;-92
2023/03/16 16:33:23;;;;;;;0.00;0.00;;;10.10;76.00;;;;;;6302516;22;20004;-91
2023/03/16 16:35:49;;;;;;;0.00;0.00;;;;;;;;;;6302794;22;20526;-90
2023/03/16 16:38:15;;;;;;;0.10;0.10;;;;;;;;;;6304213;22;19999;-90
2023/03/16 16:40:44;;;;;;;0.00;0.00;;;;;;;;;;6303720;22;20428;-91
2023/03/16 16:43:19;;;;;;;0.10;0.10;;;9.70;77.60;;;;;;6303736;22;20420;-91
2023/03/16 16:45:46;;;;;;;0.00;0.00;;;;;;;;;;6303916;22;20343;-90
2023/03/16 16:48:30;;;;;;;0.00;0.00;;;9.60;78.00;;;;;;6301422;22;20011;-91
2023/03/16 16:50:56;;;;;;;0.10;0.10;;;10.00;79.00;;;;;;6299993;22;20007;-91
2023/03/16 16:53:23;;;;;;;0.00;0.00;;;;;;;;;;6303824;22;20018;-90
2023/03/16 16:55:49;;;;;;;0.10;0.10;;;;;;;;;;6302809;22;20377;-90
2023/03/16 16:58:16;;;;;;;0.10;0.10;;;;;;;;;;6302424;22;20015;-92
2023/03/16 17:00:43;;;;;;;0.10;0.10;;;;;;;;;;6303967;22;20340;-90
2023/03/16 17:03:29;;;;;;;0.10;0.10;;;9.10;80.70;;;;;;6303525;22;20014;-90
2023/03/16 17:05:57;;;;;;;0.10;0.10;;;8.60;81.70;;;;;;6302782;22;20461;-91
2023/03/16 17:08:23;;;;;;;0.10;0.10;;;8.90;81.50;;;;;;6303077;22;20080;-92
2023/03/16 17:10:50;;;;;;;0.10;0.10;;;8.80;81.90;;;;;;6304861;22;19995;-90
2023/03/16 17:13:31;;;;;;;0.10;0.10;;;8.90;81.80;;;;;;6299859;22;20014;-89
2023/03/16 17:15:57;;;;;;;0.10;0.10;;;;;;;;;;6302173;22;20033;-90
2023/03/16 17:18:32;;;;;;;0.10;0.10;;;;;;;;;;6303305;22;20041;-89
2023/03/16 17:21:55;;;;;;;;;;;;;;;;;;;;;
2023/03/16 17:27:57;;;;;;;0.10;0.10;;;8.70;83.80;;;;;;6310124;22;20006;-89
2023/03/16 17:30:32;;;;;;;0.10;0.10;;;8.60;84.70;;;;;;6309226;22;20014;-91
2023/03/16 17:33:12;;;;;;;0.10;0.10;;;8.40;86.10;;;;;;6308910;22;20006;-90
2023/03/16 17:35:37;;;;;;;0.10;0.10;;;7.30;86.10;;;;;;6309438;22;20406;-90
2023/03/16 17:38:03;;;;;;;0.10;0.10;;;;;;;;;;6310006;22;20218;-91
2023/03/16 17:40:29;;;;;;;0.10;0.10;;;;;;;;;;6307481;22;20003;-91
2023/03/16 17:42:55;;;;;;;0.10;0.10;;;;;;;;;;6309935;22;20028;-92
2023/03/16 17:45:25;;;;;;;0.10;0.10;;;8.30;88.40;;;;;;6308303;22;20003;-92
2023/03/16 17:47:51;;;;;;;0.10;0.10;;;8.20;89.20;;;;;;6306550;22;20090;-92
2023/03/16 17:50:18;;;;;;;0.10;0.10;;;;;;;;;;6306850;22;20010;-90
2023/03/16 17:52:44;;;;;;;0.10;0.10;;;;;;;;;;6303156;22;20056;-90
2023/03/16 17:55:11;;;;;;;0.10;0.10;;;;;;;;;;6305746;22;20003;-88
2023/03/16 17:57:37;;;;;;;0.10;0.10;;;8.20;89.50;;;;;;6319707;22;20010;-90
2023/03/16 18:00:17;;;;;;;0.10;0.10;;;8.10;90.40;;;;;;6309855;22;20042;-89
2023/03/16 18:02:55;;;;;;;0.10;0.10;;;8.10;90.40;;;;;;6311074;22;20007;-90
2023/03/16 18:05:24;;;;;;;0.10;0.10;;;8.00;90.40;;;;;;6310773;22;20017;-89
2023/03/16 18:07:50;;;;;;;0.00;0.00;;;7.90;91.10;;;;;;6311717;22;20587;-91
2023/03/16 18:13:03;;;;;;;0.10;0.10;;;7.90;91.20;;;;;;6307568;22;20042;-90
2023/03/16 18:15:32;;;;;;;0.10;0.10;;;7.70;91.30;;;;;;6280194;22;20003;-87
2023/03/16 18:17:58;;;;;;;0.10;0.10;;;;;;;;;;6280810;22;20497;-88
2023/03/16 18:20:28;;;;;;;0.10;0.10;;;7.60;92.40;;;;;;6267984;22;20339;-87
2023/03/16 18:22:55;;;;;;;0.10;0.10;;;7.50;92.70;;;;;;6250031;22;20057;-89
2023/03/16 18:25:38;;;;;;;0.10;0.10;;;7.70;92.50;;;;;;6249742;22;20010;-86
2023/03/16 18:28:05;;;;;;;0.10;0.10;;;8.90;93.00;;;;;;6247265;22;20014;-90
2023/03/16 18:30:31;;;;;;;0.10;0.10;;;;;;;;;;6242736;22;20340;-88
2023/03/16 18:32:59;;;;;;;0.10;0.10;;;7.50;93.00;;;;;;6246798;22;20022;-88
2023/03/16 18:35:25;;;;;;;0.10;0.10;;;;;;;;;;6248283;22;20003;-87
2023/03/16 18:37:55;;;;;;;0.10;0.10;;;;;;;;;;6245669;22;20038;-86
2023/03/16 18:40:22;;;;;;;0.10;0.10;;;7.50;93.60;;;;;;6248879;22;20039;-89
2023/03/16 18:42:48;;;;;;;0.10;0.10;;;;;;;;;;6248277;22;20007;-90
2023/03/16 18:45:18;;;;;;;0.10;0.10;;;;;;;;;;6249104;22;20004;-87
2023/03/16 18:48:19;;;;;;;0.10;0.10;;;7.40;94.60;;;;;;6249333;22;20325;-87
2023/03/16 18:50:48;;;;;;;0.10;0.10;;;;;;;;;;6223246;22;20007;-88
2023/03/16 18:53:18;;;;;;;0.10;0.10;;;7.50;94.80;;;;;;6248870;22;20004;-87
2023/03/16 18:55:47;;;;;;;0.10;0.10;;;;;;;;;;6247969;22;19996;-87
2023/03/16 18:58:27;;;;;;;0.00;0.00;;;7.50;95.50;;;;;;6248056;22;20082;-90
2023/03/16 19:04:35;;;;;;;0.10;0.10;;;7.50;95.70;;;;;;6278072;22;20349;-87
2023/03/16 19:07:29;;;;;;;0.10;0.10;;;7.40;96.20;;;;;;6248859;22;20010;-87
2023/03/16 19:10:20;;;;;;;0.00;0.00;;;7.40;96.80;;;;;;6251941;22;20042;-90
2023/03/16 19:12:59;;;;;;;0.10;0.10;;;7.40;96.70;;;;;;6243810;22;20399;-89
2023/03/16 19:15:48;;;;;;;0.10;0.10;;;7.30;96.90;;;;;;6253172;22;20011;-90
2023/03/16 19:18:14;;;;;;;0.10;0.10;;;;;;;;;;6252722;22;20010;-91
2023/03/16 19:21:18;;;;;;;0.10;0.10;;;7.40;96.90;;;;;;6253444;22;20008;-89
2023/03/16 19:24:25;;;;;;;0.10;0.10;;;7.50;97.40;;;;;;6253316;22;20014;-88
2023/03/16 19:26:51;;;;;;;0.10;0.10;;;;;;;;;;6266509;22;20444;-90
2023/03/16 19:29:20;;;;;;;0.10;0.10;;;7.50;97.40;;;;;;6248698;22;20081;-86
2023/03/16 19:31:46;;;;;;;0.10;0.10;;;7.30;97.60;;;;;;6252991;22;20057;-91
2023/03/16 19:34:18;;;;;;;0.10;0.10;;;7.20;98.10;;;;;;6252973;22;20012;-88
2023/03/16 19:36:44;;;;;;;0.10;0.10;;;;;;;;;;6253426;22;19999;-91
2023/03/16 19:39:15;;;;;;;0.10;0.10;;;7.60;98.00;;;;;;6253126;22;20099;-89
2023/03/16 19:41:40;;;;;;;0.10;0.10;;;7.60;98.10;;;;;;6253816;22;20450;-91
2023/03/16 19:44:18;;;;;;;0.10;0.10;;;7.60;98.30;;;;;;6253866;22;20090;-92
2023/03/16 19:46:45;;;;;;;0.10;0.10;;;7.60;98.20;;;;;;6249328;22;20022;-91
2023/03/16 19:49:19;;;;;;;0.10;0.10;;;7.30;98.30;;;;;;6253576;22;20445;-90
2023/03/16 19:52:01;;;;;;;0.10;0.10;;;7.60;98.40;;;;;;6247475;22;20004;-87
2023/03/16 19:54:32;;;;;;;0.10;0.10;;;7.70;98.20;;;;;;6249373;22;20014;-90
2023/03/16 19:57:02;;;;;;;0.10;0.10;;;7.60;98.80;;;;;;6253304;22;20061;-89
2023/03/16 19:59:32;;;;;;;0.10;0.10;;;7.60;98.50;;;;;;6263284;22;19992;-88
2023/03/16 20:01:58;;;;;;;0.10;0.10;;;;;;;;;;6260822;22;20055;-88
2023/03/16 20:04:25;;;;;;;0.10;0.10;;;7.60;98.90;;;;;;6251979;22;20004;-88